sensor_id;sensor_type;location;lat;lon;timestamp;temperature;humidity
21417;DHT22;10869;52.238;10.716;2022-09-03T03:02:56;14.10;91.50
21417;DHT22;10869;52.238;10.716;2022-09-03T03:06:14;14.00;91.50
21417;DHT22;10869;52.238;10.716;2022-09-03T03:08:23;14.00;91.50
21417;DHT22;10869;52.238;10.716;2022-09-03T03:11:00;14.00;91.50
21417;DHT22;10869;52.238;10.716;2022-09-03T03:13:28;14.00;91.60
21417;DHT22;10869;52.238;10.716;2022-09-03T03:16:02;14.00;91.60
21417;DHT22;10869;52.238;10.716;2022-09-03T03:18:29;14.00;91.60
21417;DHT22;10869;52.238;10.716;2022-09-03T03:20:57;14.00;91.70
21417;DHT22;10869;52.238;10.716;2022-09-03T03:23:30;14.00;91.70
21417;DHT22;10869;52.238;10.716;2022-09-03T03:26:03;14.00;91.80
21417;DHT22;10869;52.238;10.716;2022-09-03T03:28:29;14.00;91.80
21417;DHT22;10869;52.238;10.716;2022-09-03T03:31:03;13.90;91.80
21417;DHT22;10869;52.238;10.716;2022-09-03T03:33:32;13.90;91.90
21417;DHT22;10869;52.238;10.716;2022-09-03T03:36:06;13.90;91.90
21417;DHT22;10869;52.238;10.716;2022-09-03T03:42:32;13.90;92.00
21417;DHT22;10869;52.238;10.716;2022-09-03T03:44:59;13.80;92.10
21417;DHT22;10869;52.238;10.716;2022-09-03T03:47:28;13.80;92.10
21417;DHT22;10869;52.238;10.716;2022-09-03T03:49:58;13.80;92.30
21417;DHT22;10869;52.238;10.716;2022-09-03T03:52:25;13.80;92.30
21417;DHT22;10869;52.238;10.716;2022-09-03T03:54:51;13.70;92.30
21417;DHT22;10869;52.238;10.716;2022-09-03T03:57:18;13.70;92.30
21417;DHT22;10869;52.238;10.716;2022-09-03T03:59:45;13.70;92.30
21417;DHT22;10869;52.238;10.716;2022-09-03T04:02:11;13.80;92.30
21417;DHT22;10869;52.238;10.716;2022-09-03T04:04:37;13.80;92.40
21417;DHT22;10869;52.238;10.716;2022-09-03T04:07:03;13.70;92.40
21417;DHT22;10869;52.238;10.716;2022-09-03T04:09:29;13.80;92.40
21417;DHT22;10869;52.238;10.716;2022-09-03T04:11:54;13.80;92.40
21417;DHT22;10869;52.238;10.716;2022-09-03T04:14:22;13.80;92.40
21417;DHT22;10869;52.238;10.716;2022-09-03T04:16:52;13.80;92.50
21417;DHT22;10869;52.238;10.716;2022-09-03T04:19:18;13.80;92.40
21417;DHT22;10869;52.238;10.716;2022-09-03T04:21:48;13.80;92.40
21417;DHT22;10869;52.238;10.716;2022-09-03T04:24:14;13.80;92.50
21417;DHT22;10869;52.238;10.716;2022-09-03T04:26:40;13.80;92.40
21417;DHT22;10869;52.238;10.716;2022-09-03T04:29:08;13.80;92.50
21417;DHT22;10869;52.238;10.716;2022-09-03T04:31:36;13.80;92.50
21417;DHT22;10869;52.238;10.716;2022-09-03T04:34:02;13.70;92.50
21417;DHT22;10869;52.238;10.716;2022-09-03T04:36:31;13.70;92.60
21417;DHT22;10869;52.238;10.716;2022-09-03T04:38:59;13.70;92.70
21417;DHT22;10869;52.238;10.716;2022-09-03T04:41:30;13.70;92.70
21417;DHT22;10869;52.238;10.716;2022-09-03T04:43:57;13.70;92.70
21417;DHT22;10869;52.238;10.716;2022-09-03T04:46:25;13.70;92.70
21417;DHT22;10869;52.238;10.716;2022-09-03T04:48:53;13.80;92.80
21417;DHT22;10869;52.238;10.716;2022-09-03T04:51:22;13.80;92.70
21417;DHT22;10869;52.238;10.716;2022-09-03T04:53:56;13.80;92.80
21417;DHT22;10869;52.238;10.716;2022-09-03T04:56:24;13.80;92.70
21417;DHT22;10869;52.238;10.716;2022-09-03T04:59:01;13.80;92.70
21417;DHT22;10869;52.238;10.716;2022-09-03T05:01:29;13.80;92.70
21417;DHT22;10869;52.238;10.716;2022-09-03T05:03:55;13.80;92.70
21417;DHT22;10869;52.238;10.716;2022-09-03T05:06:23;13.80;92.70
21417;DHT22;10869;52.238;10.716;2022-09-03T05:08:51;13.80;92.70
21417;DHT22;10869;52.238;10.716;2022-09-03T05:11:18;13.80;92.70
21417;DHT22;10869;52.238;10.716;2022-09-03T05:13:50;13.80;92.80
21417;DHT22;10869;52.238;10.716;2022-09-03T05:16:17;13.80;92.80
21417;DHT22;10869;52.238;10.716;2022-09-03T05:18:43;13.70;92.90
21417;DHT22;10869;52.238;10.716;2022-09-03T05:21:18;13.70;93.00
21417;DHT22;10869;52.238;10.716;2022-09-03T05:23:48;13.70;93.00
21417;DHT22;10869;52.238;10.716;2022-09-03T05:26:25;13.70;93.10
21417;DHT22;10869;52.238;10.716;2022-09-03T05:28:56;13.70;93.10
21417;DHT22;10869;52.238;10.716;2022-09-03T05:31:24;13.70;93.20
21417;DHT22;10869;52.238;10.716;2022-09-03T05:33:54;13.60;93.30
21417;DHT22;10869;52.238;10.716;2022-09-03T05:39:27;13.60;93.40
21417;DHT22;10869;52.238;10.716;2022-09-03T05:41:54;13.70;93.50
21417;DHT22;10869;52.238;10.716;2022-09-03T05:44:20;13.70;93.50
21417;DHT22;10869;52.238;10.716;2022-09-03T05:46:48;13.70;93.40
21417;DHT22;10869;52.238;10.716;2022-09-03T05:49:16;13.80;93.30
21417;DHT22;10869;52.238;10.716;2022-09-03T05:51:42;13.80;93.40
21417;DHT22;10869;52.238;10.716;2022-09-03T05:54:12;13.90;93.30
21417;DHT22;10869;52.238;10.716;2022-09-03T05:56:38;13.90;93.20
21417;DHT22;10869;52.238;10.716;2022-09-03T05:59:07;14.00;93.20
21417;DHT22;10869;52.238;10.716;2022-09-03T06:01:40;14.00;93.20
21417;DHT22;10869;52.238;10.716;2022-09-03T06:04:11;14.00;93.20
21417;DHT22;10869;52.238;10.716;2022-09-03T06:06:42;14.10;93.00
21417;DHT22;10869;52.238;10.716;2022-09-03T06:09:19;14.20;93.00
21417;DHT22;10869;52.238;10.716;2022-09-03T06:12:01;14.40;92.80
21417;DHT22;10869;52.238;10.716;2022-09-03T06:14:27;14.40;92.80
21417;DHT22;10869;52.238;10.716;2022-09-03T06:17:08;14.50;92.70
21417;DHT22;10869;52.238;10.716;2022-09-03T06:19:35;14.60;92.60
21417;DHT22;10869;52.238;10.716;2022-09-03T06:22:01;14.70;92.50
21417;DHT22;10869;52.238;10.716;2022-09-03T06:24:27;14.80;92.40
21417;DHT22;10869;52.238;10.716;2022-09-03T06:26:55;15.00;92.30
21417;DHT22;10869;52.238;10.716;2022-09-03T06:29:21;15.10;92.10
21417;DHT22;10869;52.238;10.716;2022-09-03T06:31:46;15.10;92.00
21417;DHT22;10869;52.238;10.716;2022-09-03T06:34:13;15.20;92.00
21417;DHT22;10869;52.238;10.716;2022-09-03T06:36:54;15.30;91.90
21417;DHT22;10869;52.238;10.716;2022-09-03T06:39:20;15.50;91.70
21417;DHT22;10869;52.238;10.716;2022-09-03T06:41:46;15.60;91.50
21417;DHT22;10869;52.238;10.716;2022-09-03T06:44:16;15.60;91.50
21417;DHT22;10869;52.238;10.716;2022-09-03T06:46:42;15.70;91.40
21417;DHT22;10869;52.238;10.716;2022-09-03T06:49:08;15.80;91.20
21417;DHT22;10869;52.238;10.716;2022-09-03T07:01:52;16.20;90.80
21417;DHT22;10869;52.238;10.716;2022-09-03T07:04:17;16.30;90.70
21417;DHT22;10869;52.238;10.716;2022-09-03T07:06:44;16.30;90.60
21417;DHT22;10869;52.238;10.716;2022-09-03T07:09:12;16.40;90.50
21417;DHT22;10869;52.238;10.716;2022-09-03T07:11:48;16.50;90.40
21417;DHT22;10869;52.238;10.716;2022-09-03T07:17:36;16.80;90.00
21417;DHT22;10869;52.238;10.716;2022-09-03T07:20:02;16.80;90.00
21417;DHT22;10869;52.238;10.716;2022-09-03T07:25:58;17.10;89.70
21417;DHT22;10869;52.238;10.716;2022-09-03T07:28:26;17.30;89.00
21417;DHT22;10869;52.238;10.716;2022-09-03T07:30:59;17.30;89.30
21417;DHT22;10869;52.238;10.716;2022-09-03T07:33:25;17.50;89.00
21417;DHT22;10869;52.238;10.716;2022-09-03T07:36:05;17.70;87.40
21417;DHT22;10869;52.238;10.716;2022-09-03T07:38:36;17.70;87.80
21417;DHT22;10869;52.238;10.716;2022-09-03T07:41:04;17.80;87.70
21417;DHT22;10869;52.238;10.716;2022-09-03T07:43:42;17.80;86.80
21417;DHT22;10869;52.238;10.716;2022-09-03T07:46:09;17.80;87.30
21417;DHT22;10869;52.238;10.716;2022-09-03T07:48:39;18.00;87.00
21417;DHT22;10869;52.238;10.716;2022-09-03T07:51:06;18.10;86.90
21417;DHT22;10869;52.238;10.716;2022-09-03T07:53:33;18.30;87.40
21417;DHT22;10869;52.238;10.716;2022-09-03T07:56:07;18.30;86.60
21417;DHT22;10869;52.238;10.716;2022-09-03T07:58:33;18.50;86.60
21417;DHT22;10869;52.238;10.716;2022-09-03T08:01:04;18.50;86.10
21417;DHT22;10869;52.238;10.716;2022-09-03T08:03:30;18.60;85.50
21417;DHT22;10869;52.238;10.716;2022-09-03T08:06:03;18.60;85.00
21417;DHT22;10869;52.238;10.716;2022-09-03T08:08:30;18.70;85.50
21417;DHT22;10869;52.238;10.716;2022-09-03T08:11:18;19.00;86.10
21417;DHT22;10869;52.238;10.716;2022-09-03T08:13:56;19.20;83.90
21417;DHT22;10869;52.238;10.716;2022-09-03T08:16:28;19.30;84.20
21417;DHT22;10869;52.238;10.716;2022-09-03T08:18:53;19.50;83.60
21417;DHT22;10869;52.238;10.716;2022-09-03T08:21:22;19.40;84.40
21417;DHT22;10869;52.238;10.716;2022-09-03T08:23:53;19.50;83.00
21417;DHT22;10869;52.238;10.716;2022-09-03T08:26:20;19.50;83.50
21417;DHT22;10869;52.238;10.716;2022-09-03T08:28:47;19.70;82.70
21417;DHT22;10869;52.238;10.716;2022-09-03T08:34:35;19.90;83.10
21417;DHT22;10869;52.238;10.716;2022-09-03T08:40:24;20.20;82.00
21417;DHT22;10869;52.238;10.716;2022-09-03T08:43:14;20.50;80.20
21417;DHT22;10869;52.238;10.716;2022-09-03T08:45:42;20.60;79.40
21417;DHT22;10869;52.238;10.716;2022-09-03T08:48:15;20.50;79.60
21417;DHT22;10869;52.238;10.716;2022-09-03T08:50:44;20.60;80.00
21417;DHT22;10869;52.238;10.716;2022-09-03T08:53:15;20.70;80.00
21417;DHT22;10869;52.238;10.716;2022-09-03T08:55:55;20.80;79.50
21417;DHT22;10869;52.238;10.716;2022-09-03T08:58:26;21.10;78.60
21417;DHT22;10869;52.238;10.716;2022-09-03T09:40:08;22.60;73.60
21417;DHT22;10869;52.238;10.716;2022-09-03T09:42:34;22.50;71.80
21417;DHT22;10869;52.238;10.716;2022-09-03T09:47:39;22.60;71.00
21417;DHT22;10869;52.238;10.716;2022-09-03T09:50:29;22.50;72.30
21417;DHT22;10869;52.238;10.716;2022-09-03T09:57:00;22.40;71.60
21417;DHT22;10869;52.238;10.716;2022-09-03T09:59:28;22.80;70.90
21417;DHT22;10869;52.238;10.716;2022-09-03T10:02:10;22.90;70.00
21417;DHT22;10869;52.238;10.716;2022-09-03T10:04:46;23.30;69.20
21417;DHT22;10869;52.238;10.716;2022-09-03T10:07:26;23.50;68.80
21417;DHT22;10869;52.238;10.716;2022-09-03T10:10:13;23.50;66.70
21417;DHT22;10869;52.238;10.716;2022-09-03T10:12:50;23.50;66.90
21417;DHT22;10869;52.238;10.716;2022-09-03T10:23:50;23.60;65.30
21417;DHT22;10869;52.238;10.716;2022-09-03T10:26:22;23.70;65.40
21417;DHT22;10869;52.238;10.716;2022-09-03T10:29:04;23.90;67.40
21417;DHT22;10869;52.238;10.716;2022-09-03T10:32:20;23.90;65.00
21417;DHT22;10869;52.238;10.716;2022-09-03T11:29:40;25.20;62.80
21417;DHT22;10869;52.238;10.716;2022-09-03T13:30:11;24.80;61.30
21417;DHT22;10869;52.238;10.716;2022-09-03T13:32:51;24.70;60.20
21417;DHT22;10869;52.238;10.716;2022-09-03T13:35:41;24.80;61.20
21417;DHT22;10869;52.238;10.716;2022-09-03T13:45:58;24.60;60.60
21417;DHT22;10869;52.238;10.716;2022-09-03T13:48:36;24.40;61.60
21417;DHT22;10869;52.238;10.716;2022-09-03T14:06:08;24.20;61.60
21417;DHT22;10869;52.238;10.716;2022-09-03T14:11:34;24.30;62.00
21417;DHT22;10869;52.238;10.716;2022-09-03T14:17:09;24.30;62.00
21417;DHT22;10869;52.238;10.716;2022-09-03T14:19:51;24.50;62.40
21417;DHT22;10869;52.238;10.716;2022-09-03T14:25:18;24.20;63.00
21417;DHT22;10869;52.238;10.716;2022-09-03T14:27:45;24.30;61.60
21417;DHT22;10869;52.238;10.716;2022-09-03T14:30:47;24.30;61.40
21417;DHT22;10869;52.238;10.716;2022-09-03T14:33:38;24.40;62.20
21417;DHT22;10869;52.238;10.716;2022-09-03T14:36:30;24.30;61.70
21417;DHT22;10869;52.238;10.716;2022-09-03T14:49:36;24.10;62.00
21417;DHT22;10869;52.238;10.716;2022-09-03T14:53:04;24.20;61.90
21417;DHT22;10869;52.238;10.716;2022-09-03T14:56:02;24.20;62.20
21417;DHT22;10869;52.238;10.716;2022-09-03T15:01:32;23.90;61.90
21417;DHT22;10869;52.238;10.716;2022-09-03T15:07:01;23.90;61.30
21417;DHT22;10869;52.238;10.716;2022-09-03T15:12:56;23.50;61.30
21417;DHT22;10869;52.238;10.716;2022-09-03T15:15:35;23.40;61.90
21417;DHT22;10869;52.238;10.716;2022-09-03T15:18:16;23.50;61.40
21417;DHT22;10869;52.238;10.716;2022-09-03T15:20:53;23.50;61.50
21417;DHT22;10869;52.238;10.716;2022-09-03T15:26:50;23.40;61.70
21417;DHT22;10869;52.238;10.716;2022-09-03T15:32:28;23.30;62.10
21417;DHT22;10869;52.238;10.716;2022-09-03T15:42:36;23.50;62.70
21417;DHT22;10869;52.238;10.716;2022-09-03T15:48:04;23.40;62.80
21417;DHT22;10869;52.238;10.716;2022-09-03T15:50:56;23.30;62.80
21417;DHT22;10869;52.238;10.716;2022-09-03T15:56:50;23.20;63.10
21417;DHT22;10869;52.238;10.716;2022-09-03T15:59:22;23.20;63.00
21417;DHT22;10869;52.238;10.716;2022-09-03T16:05:18;23.10;64.80
21417;DHT22;10869;52.238;10.716;2022-09-03T16:08:07;22.90;63.30
21417;DHT22;10869;52.238;10.716;2022-09-03T16:28:18;22.60;63.80
21417;DHT22;10869;52.238;10.716;2022-09-03T16:41:19;22.30;64.40
21417;DHT22;10869;52.238;10.716;2022-09-03T16:49:39;21.90;66.20
21417;DHT22;10869;52.238;10.716;2022-09-03T16:55:21;21.80;66.30
21417;DHT22;10869;52.238;10.716;2022-09-03T17:00:47;21.60;66.70
21417;DHT22;10869;52.238;10.716;2022-09-03T17:24:45;20.80;70.30
21417;DHT22;10869;52.238;10.716;2022-09-03T17:46:13;20.20;72.10
21417;DHT22;10869;52.238;10.716;2022-09-03T17:48:48;20.20;72.90
21417;DHT22;10869;52.238;10.716;2022-09-03T18:12:48;19.50;74.40
21417;DHT22;10869;52.238;10.716;2022-09-03T18:22:01;19.20;75.80
21417;DHT22;10869;52.238;10.716;2022-09-03T18:24:55;19.10;75.40
21417;DHT22;10869;52.238;10.716;2022-09-03T18:31:15;19.00;76.80
21417;DHT22;10869;52.238;10.716;2022-09-03T18:56:49;18.50;77.40
21417;DHT22;10869;52.238;10.716;2022-09-03T19:00:09;18.40;77.20
21417;DHT22;10869;52.238;10.716;2022-09-03T19:06:34;18.30;77.70
21417;DHT22;10869;52.238;10.716;2022-09-03T20:50:47;17.10;82.10
21417;DHT22;10869;52.238;10.716;2022-09-03T21:04:02;17.00;82.80
21417;DHT22;10869;52.238;10.716;2022-09-03T21:26:35;16.70;84.10
21417;DHT22;10869;52.238;10.716;2022-09-03T21:32:15;16.60;84.20
21417;DHT22;10869;52.238;10.716;2022-09-03T21:34:57;16.60;84.50
21417;DHT22;10869;52.238;10.716;2022-09-03T21:37:32;16.60;84.50
21417;DHT22;10869;52.238;10.716;2022-09-03T21:39:58;16.60;84.80
21417;DHT22;10869;52.238;10.716;2022-09-03T21:42:43;16.60;84.90
21417;DHT22;10869;52.238;10.716;2022-09-03T21:45:38;16.50;85.10
21417;DHT22;10869;52.238;10.716;2022-09-03T21:48:09;16.60;84.90
21417;DHT22;10869;52.238;10.716;2022-09-03T21:50:44;16.60;85.10
21417;DHT22;10869;52.238;10.716;2022-09-03T21:53:27;16.70;85.30
21417;DHT22;10869;52.238;10.716;2022-09-03T21:58:47;16.80;85.30
21417;DHT22;10869;52.238;10.716;2022-09-03T22:01:23;16.80;85.50
21417;DHT22;10869;52.238;10.716;2022-09-03T22:03:52;16.80;85.60
21417;DHT22;10869;52.238;10.716;2022-09-03T22:06:37;16.80;85.70
21417;DHT22;10869;52.238;10.716;2022-09-03T22:09:39;16.80;85.70
21417;DHT22;10869;52.238;10.716;2022-09-03T22:12:27;16.90;85.80
21417;DHT22;10869;52.238;10.716;2022-09-03T22:14:55;16.90;85.80
21417;DHT22;10869;52.238;10.716;2022-09-03T22:19:59;16.80;85.90
21417;DHT22;10869;52.238;10.716;2022-09-03T22:22:45;16.80;86.10
21417;DHT22;10869;52.238;10.716;2022-09-03T22:25:20;16.80;86.30
21417;DHT22;10869;52.238;10.716;2022-09-03T22:30:47;16.70;86.40
21417;DHT22;10869;52.238;10.716;2022-09-03T22:47:05;16.60;87.50
21417;DHT22;10869;52.238;10.716;2022-09-03T22:52:40;16.50;87.80
21417;DHT22;10869;52.238;10.716;2022-09-03T22:55:22;16.50;88.00
21417;DHT22;10869;52.238;10.716;2022-09-03T22:58:22;16.50;88.20
